Time;durP1;ratioP1;P1;durP2;ratioP2;P2;SDS_P1;SDS_P2;PMS_P1;PMS_P2;Temp;Humidity;BMP_temperature;BMP_pressure;BME280_temperature;BME280_humidity;BME280_pressure;Samples;Min_cycle;Max_cycle;Signal;HPM_P1;HPM_P2
2022/03/29 00:01:03;;;;;;;;;;;19.90;55.00;;;;;;5004786;28;19921;-66
2022/03/29 00:03:28;;;;;;;;;;;19.90;55.00;;;;;;4991856;28;19921;-66
2022/03/29 00:05:54;;;;;;;;;;;19.90;55.20;;;;;;5003521;28;20372;-65
2022/03/29 00:08:19;;;;;;;;;;;19.90;55.20;;;;;;4987770;28;20003;-66
2022/03/29 00:10:45;;;;;;;;;;;19.90;55.10;;;;;;5003061;28;19917;-65
2022/03/29 00:13:10;;;;;;;;;;;19.90;55.00;;;;;;4994878;28;19917;-66
2022/03/29 00:15:36;;;;;;;;;;;19.90;55.00;;;;;;4987445;28;19917;-62
2022/03/29 00:18:01;;;;;;;;;;;19.90;55.00;;;;;;4985003;28;19922;-65
2022/03/29 00:20:27;;;;;;;;;;;19.90;55.10;;;;;;5003204;28;19921;-66
2022/03/29 00:22:52;;;;;;;;;;;19.80;55.00;;;;;;5014367;28;19921;-65
2022/03/29 00:25:18;;;;;;;;;;;19.90;55.00;;;;;;5004430;28;20487;-66
2022/03/29 00:27:43;;;;;;;;;;;19.80;55.00;;;;;;5001102;28;19977;-65
2022/03/29 00:30:11;;;;;;;;;;;19.80;55.00;;;;;;5003919;28;20343;-65
2022/03/29 00:32:36;;;;;;;;;;;19.80;55.00;;;;;;5012287;28;19917;-67
2022/03/29 00:35:02;;;;;;;;;;;19.80;55.00;;;;;;4985578;28;19948;-66
2022/03/29 00:37:27;;;;;;;;;;;19.80;54.90;;;;;;5006605;28;19917;-66
2022/03/29 00:39:53;;;;;;;;;;;19.80;55.00;;;;;;5003444;28;19917;-63
2022/03/29 00:42:18;;;;;;;;;;;19.80;55.00;;;;;;5012844;28;19914;-65
2022/03/29 00:44:44;;;;;;;;;;;19.80;54.90;;;;;;5007749;28;19968;-62
2022/03/29 00:47:09;;;;;;;;;;;19.70;55.00;;;;;;5013429;28;19909;-66
2022/03/29 00:49:34;;;;;;;;;;;19.80;55.00;;;;;;5006340;28;19988;-62
2022/03/29 00:52:01;;;;;;;;;;;19.80;54.90;;;;;;4994462;28;19968;-66
2022/03/29 00:54:26;;;;;;;;;;;19.80;54.90;;;;;;4999965;28;20458;-66
2022/03/29 00:56:52;;;;;;;;;;;19.70;54.90;;;;;;5012948;28;19913;-65
2022/03/29 00:59:18;;;;;;;;;;;19.70;54.90;;;;;;5009936;28;20000;-66
2022/03/29 01:01:43;;;;;;;;;;;19.70;54.90;;;;;;5010428;28;19913;-66
2022/03/29 01:04:09;;;;;;;;;;;19.70;54.90;;;;;;4987346;28;20016;-65
2022/03/29 01:06:35;;;;;;;;;;;19.80;55.00;;;;;;5003257;28;19928;-66
2022/03/29 01:09:00;;;;;;;;;;;19.70;54.90;;;;;;4993890;28;19953;-65
2022/03/29 01:11:26;;;;;;;;;;;19.70;54.90;;;;;;5002726;28;19944;-66
2022/03/29 01:13:51;;;;;;;;;;;19.70;54.90;;;;;;4998827;28;19924;-65
2022/03/29 01:19:01;;;;;;;;;;;19.70;54.90;;;;;;4997497;28;19937;-65
2022/03/29 01:21:29;;;;;;;;;;;19.70;55.50;;;;;;4985197;28;19921;-65
2022/03/29 01:23:54;;;;;;;;;;;19.70;54.80;;;;;;4999652;28;19924;-66
2022/03/29 01:26:20;;;;;;;;;;;19.70;54.90;;;;;;5003140;28;19914;-65
2022/03/29 01:28:45;;;;;;;;;;;19.70;54.90;;;;;;4998888;28;20470;-66
2022/03/29 01:31:11;;;;;;;;;;;19.70;54.90;;;;;;5002607;28;19979;-66
2022/03/29 01:33:36;;;;;;;;;;;19.60;54.90;;;;;;4998720;28;20539;-65
2022/03/29 01:36:02;;;;;;;;;;;19.70;54.90;;;;;;5002210;28;19924;-66
2022/03/29 01:38:28;;;;;;;;;;;19.60;54.90;;;;;;5013119;28;19916;-65
2022/03/29 01:40:59;;;;;;;;;;;19.60;54.90;;;;;;5002272;28;19922;-66
2022/03/29 01:43:24;;;;;;;;;;;19.60;54.90;;;;;;5000212;28;20396;-66
2022/03/29 01:45:50;;;;;;;;;;;19.60;54.90;;;;;;5002727;28;19924;-66
2022/03/29 01:48:15;;;;;;;;;;;19.60;55.00;;;;;;5014435;28;20046;-66
2022/03/29 01:50:41;;;;;;;;;;;19.50;54.90;;;;;;5001995;28;19917;-65
2022/03/29 01:53:06;;;;;;;;;;;19.60;54.90;;;;;;4981643;28;19909;-65
2022/03/29 01:55:32;;;;;;;;;;;19.50;54.90;;;;;;5010692;28;20549;-66
2022/03/29 01:57:57;;;;;;;;;;;19.50;54.90;;;;;;5000094;28;19943;-65
2022/03/29 02:00:33;;;;;;;;;;;19.50;54.90;;;;;;5001131;28;19925;-65
2022/03/29 02:02:59;;;;;;;;;;;19.50;54.80;;;;;;4999991;28;19918;-65
2022/03/29 02:05:25;;;;;;;;;;;19.50;54.90;;;;;;5002495;28;19925;-63
2022/03/29 02:07:50;;;;;;;;;;;19.50;54.90;;;;;;4998571;28;20150;-66
2022/03/29 02:10:19;;;;;;;;;;;19.50;54.90;;;;;;4995007;28;19929;-66
2022/03/29 02:12:46;;;;;;;;;;;19.50;54.90;;;;;;5001530;28;19957;-66
2022/03/29 02:15:11;;;;;;;;;;;19.50;54.90;;;;;;5003876;28;19921;-66
2022/03/29 02:17:37;;;;;;;;;;;19.50;54.80;;;;;;4999891;28;20295;-66
2022/03/29 02:20:02;;;;;;;;;;;19.50;54.80;;;;;;5000068;28;19953;-67
2022/03/29 02:22:28;;;;;;;;;;;19.50;54.80;;;;;;5016126;28;20268;-67
2022/03/29 02:24:53;;;;;;;;;;;19.50;54.90;;;;;;5016697;28;20293;-66
2022/03/29 02:27:19;;;;;;;;;;;19.50;54.90;;;;;;5001734;28;19960;-64
2022/03/29 02:29:44;;;;;;;;;;;19.40;54.80;;;;;;5001276;28;19925;-66
2022/03/29 02:32:10;;;;;;;;;;;19.40;54.90;;;;;;5001638;28;20284;-66
2022/03/29 02:34:35;;;;;;;;;;;19.40;54.90;;;;;;5017080;28;19918;-67
2022/03/29 02:37:01;;;;;;;;;;;19.40;55.00;;;;;;5000678;28;19913;-66
2022/03/29 02:39:26;;;;;;;;;;;19.40;54.90;;;;;;4983388;28;19922;-66
2022/03/29 02:41:52;;;;;;;;;;;19.40;54.90;;;;;;5001081;28;19967;-67
2022/03/29 02:44:17;;;;;;;;;;;19.40;55.00;;;;;;4999924;28;19959;-67
2022/03/29 02:46:44;;;;;;;;;;;19.40;55.00;;;;;;5011955;28;19917;-65
2022/03/29 02:49:09;;;;;;;;;;;19.30;54.90;;;;;;4987837;28;19910;-67
2022/03/29 02:51:35;;;;;;;;;;;19.40;54.90;;;;;;5014750;28;19921;-66
2022/03/29 02:54:00;;;;;;;;;;;19.30;54.90;;;;;;5005519;28;19925;-66
2022/03/29 02:56:26;;;;;;;;;;;19.40;54.90;;;;;;4995083;28;19913;-64
2022/03/29 02:58:51;;;;;;;;;;;19.40;54.90;;;;;;4986428;28;20387;-67
2022/03/29 03:01:18;;;;;;;;;;;19.30;54.90;;;;;;4993992;28;19921;-67
2022/03/29 03:03:43;;;;;;;;;;;19.30;54.80;;;;;;5005397;28;19917;-66
2022/03/29 03:06:08;;;;;;;;;;;19.30;54.90;;;;;;5004317;28;19920;-66
2022/03/29 03:08:34;;;;;;;;;;;19.30;54.80;;;;;;5004065;28;19913;-66
2022/03/29 03:10:59;;;;;;;;;;;19.30;54.80;;;;;;5005060;28;20007;-67
2022/03/29 03:13:25;;;;;;;;;;;19.30;54.80;;;;;;5005308;28;19920;-67
2022/03/29 03:15:51;;;;;;;;;;;19.30;54.90;;;;;;5002160;28;19921;-66
2022/03/29 03:18:16;;;;;;;;;;;19.30;54.80;;;;;;4986326;28;20110;-65
2022/03/29 03:20:42;;;;;;;;;;;19.30;54.80;;;;;;5004473;28;19975;-66
2022/03/29 03:23:07;;;;;;;;;;;19.30;54.70;;;;;;5003259;28;19913;-66
2022/03/29 03:25:33;;;;;;;;;;;19.30;55.40;;;;;;5019972;28;20363;-66
2022/03/29 03:27:58;;;;;;;;;;;19.30;54.80;;;;;;4986376;28;20004;-66
2022/03/29 03:30:24;;;;;;;;;;;19.20;54.80;;;;;;5018946;28;19917;-67
2022/03/29 03:32:49;;;;;;;;;;;19.30;54.80;;;;;;5012936;28;20376;-66
2022/03/29 03:35:15;;;;;;;;;;;19.30;54.70;;;;;;5004638;28;19913;-66
2022/03/29 03:37:41;;;;;;;;;;;19.30;54.80;;;;;;5005495;28;19917;-63
2022/03/29 03:40:07;;;;;;;;;;;19.20;54.70;;;;;;5019152;28;19925;-63
2022/03/29 03:42:32;;;;;;;;;;;19.20;54.70;;;;;;5007557;28;19921;-64
2022/03/29 03:44:58;;;;;;;;;;;19.30;54.70;;;;;;5004346;28;19918;-67
2022/03/29 03:47:24;;;;;;;;;;;19.20;54.60;;;;;;5004061;28;19948;-67
2022/03/29 03:49:50;;;;;;;;;;;19.20;54.60;;;;;;5002220;28;19964;-67
2022/03/29 03:52:15;;;;;;;;;;;19.20;54.70;;;;;;5011344;28;19914;-67
2022/03/29 03:54:41;;;;;;;;;;;19.20;54.70;;;;;;5003173;28;20300;-66
2022/03/29 03:57:06;;;;;;;;;;;19.10;54.70;;;;;;5003822;28;19918;-65
2022/03/29 03:59:32;;;;;;;;;;;19.10;54.60;;;;;;5003866;28;19913;-66
2022/03/29 04:01:57;;;;;;;;;;;19.20;54.70;;;;;;4998292;28;19917;-65
2022/03/29 04:04:23;;;;;;;;;;;19.10;54.70;;;;;;4986957;28;19940;-66
2022/03/29 04:06:48;;;;;;;;;;;19.10;54.70;;;;;;4989098;28;19925;-66
2022/03/29 04:09:14;;;;;;;;;;;19.20;54.70;;;;;;5003269;28;20465;-67
2022/03/29 04:11:40;;;;;;;;;;;19.20;54.70;;;;;;5001184;28;19918;-66
2022/03/29 04:14:05;;;;;;;;;;;19.10;54.60;;;;;;5002946;28;19922;-66
2022/03/29 04:16:31;;;;;;;;;;;19.10;54.70;;;;;;5000864;28;19914;-65
2022/03/29 04:18:56;;;;;;;;;;;19.10;54.70;;;;;;5004195;28;19924;-66
2022/03/29 04:21:22;;;;;;;;;;;19.10;54.70;;;;;;5005764;28;20027;-65
2022/03/29 04:23:47;;;;;;;;;;;19.10;54.60;;;;;;5004990;28;19933;-65
2022/03/29 04:26:12;;;;;;;;;;;19.10;54.70;;;;;;5005091;28;19914;-67
2022/03/29 04:28:38;;;;;;;;;;;19.00;54.70;;;;;;5003860;28;19913;-66
2022/03/29 04:31:03;;;;;;;;;;;19.10;54.60;;;;;;5003918;28;19921;-65
2022/03/29 04:33:29;;;;;;;;;;;19.10;54.90;;;;;;5036885;22;19929;-57
2022/03/29 04:35:55;;;;;;;;;;;19.10;55.00;;;;;;5040662;28;19917;-55
2022/03/29 04:38:20;;;;;;;;;;;19.10;55.00;;;;;;5038392;28;19913;-58
2022/03/29 04:40:46;;;;;;;;;;;19.10;55.60;;;;;;5026440;28;19944;-57
2022/03/29 04:43:11;;;;;;;;;;;19.20;55.70;;;;;;5041091;28;19944;-56
2022/03/29 04:45:37;;;;;;;;;;;19.30;55.40;;;;;;5023311;28;19966;-55
2022/03/29 04:48:02;;;;;;;;;;;19.30;55.30;;;;;;5040647;28;19917;-58
2022/03/29 04:50:29;;;;;;;;;;;19.30;55.40;;;;;;5040623;28;19920;-55
2022/03/29 04:52:54;;;;;;;;;;;19.40;55.40;;;;;;5022671;28;19935;-57
2022/03/29 04:55:20;;;;;;;;;;;19.40;55.40;;;;;;5041416;28;20317;-57
2022/03/29 04:57:47;;;;;;;;;;;19.40;55.20;;;;;;5041005;28;19913;-60
2022/03/29 05:00:13;;;;;;;;;;;19.30;55.10;;;;;;5022395;28;19988;-56
2022/03/29 05:02:39;;;;;;;;;;;19.40;55.10;;;;;;5040134;28;19939;-55
2022/03/29 05:05:04;;;;;;;;;;;19.40;55.00;;;;;;5040200;28;19913;-56
2022/03/29 05:07:30;;;;;;;;;;;19.30;54.90;;;;;;5040090;28;19944;-53
2022/03/29 05:09:56;;;;;;;;;;;19.30;54.80;;;;;;5039438;28;19920;-55
2022/03/29 05:12:21;;;;;;;;;;;19.30;54.80;;;;;;5040372;28;20285;-57
2022/03/29 05:14:47;;;;;;;;;;;19.30;54.80;;;;;;5040108;28;19913;-54
2022/03/29 05:17:12;;;;;;;;;;;19.30;54.70;;;;;;5040633;28;20374;-56
2022/03/29 05:19:38;;;;;;;;;;;19.20;54.70;;;;;;5040060;28;19913;-56
2022/03/29 05:22:04;;;;;;;;;;;19.30;54.90;;;;;;5022526;28;20328;-55
2022/03/29 05:24:29;;;;;;;;;;;19.20;54.80;;;;;;5040013;28;19944;-56
2022/03/29 05:26:54;;;;;;;;;;;19.20;54.60;;;;;;5039259;28;19917;-56
2022/03/29 05:29:20;;;;;;;;;;;19.30;55.00;;;;;;5035550;28;19920;-57
2022/03/29 05:31:46;;;;;;;;;;;19.30;55.90;;;;;;5037806;28;20543;-58
2022/03/29 05:34:12;;;;;;;;;;;19.30;55.70;;;;;;5037151;28;20475;-55
2022/03/29 05:36:42;;;;;;;;;;;19.30;55.20;;;;;;5038803;28;19920;-52
2022/03/29 05:39:07;;;;;;;;;;;19.30;54.80;;;;;;5038954;28;19966;-53
2022/03/29 05:41:33;;;;;;;;;;;19.30;54.70;;;;;;5039728;28;19920;-55
2022/03/29 05:43:58;;;;;;;;;;;19.30;54.60;;;;;;5039224;28;19924;-55
2022/03/29 05:49:08;;;;;;;;;;;19.20;54.30;;;;;;5039297;28;20065;-57
2022/03/29 05:51:33;;;;;;;;;;;19.20;54.20;;;;;;5040366;28;20324;-56
2022/03/29 05:54:00;;;;;;;;;;;19.20;54.00;;;;;;5039917;28;20427;-56
2022/03/29 05:56:26;;;;;;;;;;;19.20;53.80;;;;;;5038759;28;19913;-52
2022/03/29 05:58:52;;;;;;;;;;;19.20;54.10;;;;;;5038369;28;19962;-56
2022/03/29 06:01:18;;;;;;;;;;;19.30;54.30;;;;;;5038893;28;20335;-54
2022/03/29 06:03:44;;;;;;;;;;;19.20;54.20;;;;;;5038960;28;19913;-56
2022/03/29 06:06:09;;;;;;;;;;;19.20;54.30;;;;;;5038720;28;20253;-55
2022/03/29 06:08:35;;;;;;;;;;;19.20;54.30;;;;;;5038625;28;19916;-57
2022/03/29 06:11:01;;;;;;;;;;;19.20;54.30;;;;;;5039685;28;19935;-57
2022/03/29 06:13:27;;;;;;;;;;;19.20;54.30;;;;;;5038365;28;20378;-57
2022/03/29 06:15:53;;;;;;;;;;;19.20;54.30;;;;;;5038497;28;20630;-57
2022/03/29 06:18:19;;;;;;;;;;;19.20;54.30;;;;;;5053681;28;19935;-56
2022/03/29 06:20:45;;;;;;;;;;;19.20;54.50;;;;;;5039073;28;20381;-56
2022/03/29 06:23:10;;;;;;;;;;;19.20;54.50;;;;;;5038775;28;19920;-57
2022/03/29 06:25:36;;;;;;;;;;;19.20;54.50;;;;;;5038461;28;20270;-53
2022/03/29 06:28:02;;;;;;;;;;;19.20;54.50;;;;;;5038388;28;19913;-54
2022/03/29 06:30:27;;;;;;;;;;;19.20;54.60;;;;;;5037277;28;19919;-58
2022/03/29 06:32:53;;;;;;;;;;;19.20;54.80;;;;;;5036571;28;19917;-58
2022/03/29 06:35:22;;;;;;;;;;;19.20;54.70;;;;;;5019812;28;20012;-57
2022/03/29 06:37:48;;;;;;;;;;;19.10;54.60;;;;;;5037185;28;19913;-57
2022/03/29 06:40:14;;;;;;;;;;;19.10;54.60;;;;;;5039218;28;20079;-57
2022/03/29 06:42:39;;;;;;;;;;;19.10;54.60;;;;;;5038934;28;20281;-57
2022/03/29 06:45:05;;;;;;;;;;;19.10;54.60;;;;;;5038480;28;19924;-55
2022/03/29 06:47:31;;;;;;;;;;;19.10;54.60;;;;;;5038505;28;19913;-56
2022/03/29 06:49:56;;;;;;;;;;;19.20;54.60;;;;;;5038296;28;20446;-58
2022/03/29 06:52:26;;;;;;;;;;;19.20;54.70;;;;;;5039085;28;19939;-55
2022/03/29 06:54:54;;;;;;;;;;;19.10;54.60;;;;;;5038784;28;19913;-57
2022/03/29 06:57:20;;;;;;;;;;;19.10;54.60;;;;;;5038199;28;19920;-55
2022/03/29 06:59:45;;;;;;;;;;;19.10;54.60;;;;;;5038336;28;19913;-57
2022/03/29 07:02:11;;;;;;;;;;;19.10;54.60;;;;;;5037213;28;19917;-58
2022/03/29 07:04:37;;;;;;;;;;;19.10;54.60;;;;;;5038288;28;19924;-56
2022/03/29 07:07:03;;;;;;;;;;;19.10;54.60;;;;;;5038339;28;19913;-56
2022/03/29 07:12:13;;;;;;;;;;;19.10;54.60;;;;;;5038185;28;20042;-53
2022/03/29 07:14:39;;;;;;;;;;;19.10;54.60;;;;;;5038072;28;19920;-53
2022/03/29 07:17:13;;;;;;;;;;;19.10;54.60;;;;;;5038441;28;19913;-56
2022/03/29 07:19:38;;;;;;;;;;;19.10;54.60;;;;;;5037702;28;19921;-56
2022/03/29 07:22:04;;;;;;;;;;;19.10;54.60;;;;;;5038233;28;20336;-56
2022/03/29 07:24:30;;;;;;;;;;;19.10;54.60;;;;;;5020240;28;19916;-57
2022/03/29 07:26:56;;;;;;;;;;;19.10;54.60;;;;;;5038027;28;19917;-58
2022/03/29 07:29:21;;;;;;;;;;;19.10;54.60;;;;;;5037858;28;19985;-56
2022/03/29 07:31:47;;;;;;;;;;;19.10;54.60;;;;;;5039396;28;20436;-59
2022/03/29 07:34:12;;;;;;;;;;;19.10;54.60;;;;;;5024781;28;19990;-57
2022/03/29 07:36:38;;;;;;;;;;;19.10;54.60;;;;;;5023727;28;19913;-57
2022/03/29 07:39:04;;;;;;;;;;;19.10;54.60;;;;;;5041451;28;19921;-56
2022/03/29 07:41:29;;;;;;;;;;;19.10;54.60;;;;;;5041724;28;19927;-56
2022/03/29 07:43:54;;;;;;;;;;;19.00;54.60;;;;;;5040853;28;20473;-56
2022/03/29 07:46:20;;;;;;;;;;;19.10;54.60;;;;;;5041286;28;19940;-56
2022/03/29 07:48:45;;;;;;;;;;;19.00;54.50;;;;;;5041584;28;19917;-57
2022/03/29 07:51:11;;;;;;;;;;;19.00;55.20;;;;;;5041363;28;20290;-57
2022/03/29 07:53:37;;;;;;;;;;;19.00;54.50;;;;;;5023765;28;19974;-54
2022/03/29 07:56:04;;;;;;;;;;;19.00;54.60;;;;;;5041249;28;20281;-56
2022/03/29 07:58:29;;;;;;;;;;;19.00;54.50;;;;;;5041185;28;19924;-57
2022/03/29 08:00:55;;;;;;;;;;;19.00;54.50;;;;;;5041481;28;19924;-54
2022/03/29 08:03:21;;;;;;;;;;;19.10;54.50;;;;;;5041201;28;19952;-56
2022/03/29 08:05:47;;;;;;;;;;;19.00;54.50;;;;;;5041452;28;20100;-56
2022/03/29 08:08:15;;;;;;;;;;;19.00;54.50;;;;;;5041280;28;20505;-57
2022/03/29 08:10:41;;;;;;;;;;;19.00;54.50;;;;;;5040616;28;19913;-57
2022/03/29 08:13:07;;;;;;;;;;;19.00;54.60;;;;;;5040991;28;19917;-57
2022/03/29 08:15:33;;;;;;;;;;;19.00;54.50;;;;;;5040622;28;19920;-53
2022/03/29 08:17:59;;;;;;;;;;;19.00;54.40;;;;;;5041171;28;19913;-56
2022/03/29 08:20:24;;;;;;;;;;;19.00;54.40;;;;;;5040418;28;20004;-53
2022/03/29 08:22:50;;;;;;;;;;;19.00;54.40;;;;;;5041125;28;20000;-54
2022/03/29 08:25:15;;;;;;;;;;;19.00;54.40;;;;;;5040957;28;19913;-57
2022/03/29 08:27:42;;;;;;;;;;;19.00;54.40;;;;;;5041491;28;20382;-57
2022/03/29 08:30:07;;;;;;;;;;;19.00;54.40;;;;;;5041021;28;19952;-56
2022/03/29 08:32:34;;;;;;;;;;;19.00;54.50;;;;;;5040344;28;20424;-54
2022/03/29 08:35:00;;;;;;;;;;;19.00;54.50;;;;;;5041234;28;19920;-55
2022/03/29 08:37:26;;;;;;;;;;;19.00;54.40;;;;;;5040763;28;19912;-55
2022/03/29 08:39:51;;;;;;;;;;;19.00;54.40;;;;;;5022416;28;20378;-58
2022/03/29 08:42:18;;;;;;;;;;;19.00;54.40;;;;;;5041150;28;19921;-55
2022/03/29 08:44:43;;;;;;;;;;;19.00;54.40;;;;;;5040453;28;19976;-57
2022/03/29 08:47:09;;;;;;;;;;;19.00;54.30;;;;;;5040124;28;19948;-56
2022/03/29 08:49:35;;;;;;;;;;;19.00;54.30;;;;;;5040164;28;20008;-56
2022/03/29 08:52:01;;;;;;;;;;;19.00;54.30;;;;;;5040619;28;20423;-57
2022/03/29 08:54:26;;;;;;;;;;;19.00;54.20;;;;;;5040724;28;19913;-57
2022/03/29 08:56:52;;;;;;;;;;;19.10;54.20;;;;;;5022128;28;19969;-58
2022/03/29 08:59:18;;;;;;;;;;;19.00;54.10;;;;;;5040467;28;19919;-56
2022/03/29 09:01:44;;;;;;;;;;;19.10;54.20;;;;;;5039854;28;20206;-53
2022/03/29 09:04:10;;;;;;;;;;;19.00;54.10;;;;;;5040117;28;20427;-58
2022/03/29 09:06:54;;;;;;;;;;;19.10;54.10;;;;;;5022046;28;19919;-56
2022/03/29 09:09:20;;;;;;;;;;;19.10;54.10;;;;;;5039067;28;19912;-56
2022/03/29 09:11:45;;;;;;;;;;;19.10;54.10;;;;;;5023133;28;20432;-57
2022/03/29 09:14:11;;;;;;;;;;;19.10;54.10;;;;;;5040246;28;19920;-56
2022/03/29 09:16:38;;;;;;;;;;;19.10;54.10;;;;;;5039302;28;19913;-57
2022/03/29 09:19:04;;;;;;;;;;;19.10;54.10;;;;;;5038993;28;19947;-55
2022/03/29 09:21:31;;;;;;;;;;;19.10;54.00;;;;;;5038979;28;19956;-55
2022/03/29 09:24:09;;;;;;;;;;;19.10;54.10;;;;;;5021345;28;20373;-57
2022/03/29 09:26:39;;;;;;;;;;;19.10;54.10;;;;;;5039823;28;20461;-56
2022/03/29 09:29:13;;;;;;;;;;;19.10;54.10;;;;;;5039719;28;19912;-58
2022/03/29 09:31:39;;;;;;;;;;;19.00;54.00;;;;;;5039429;28;19921;-55
2022/03/29 09:34:14;;;;;;;;;;;19.00;54.10;;;;;;5038891;28;19978;-55
2022/03/29 09:36:42;;;;;;;;;;;19.00;54.00;;;;;;5039171;28;19937;-53
2022/03/29 09:39:07;;;;;;;;;;;19.00;54.00;;;;;;5038774;28;19952;-56
2022/03/29 09:41:33;;;;;;;;;;;19.00;54.00;;;;;;5039171;28;19917;-52
2022/03/29 09:43:59;;;;;;;;;;;19.00;54.00;;;;;;5039340;28;19913;-56
2022/03/29 09:46:25;;;;;;;;;;;19.00;54.00;;;;;;5039592;28;19917;-56
2022/03/29 09:48:50;;;;;;;;;;;19.00;54.00;;;;;;5038672;28;20278;-56
2022/03/29 09:51:17;;;;;;;;;;;19.10;54.00;;;;;;5021797;28;19913;-54
2022/03/29 09:53:47;;;;;;;;;;;19.10;54.00;;;;;;5039013;28;20010;-54
2022/03/29 09:56:14;;;;;;;;;;;19.10;54.00;;;;;;5021285;28;20421;-56
2022/03/29 09:58:39;;;;;;;;;;;19.00;53.90;;;;;;5038609;28;20772;-56
2022/03/29 10:01:05;;;;;;;;;;;19.10;53.90;;;;;;5039243;28;19921;-56
2022/03/29 10:03:34;;;;;;;;;;;19.10;53.90;;;;;;5021123;28;20393;-52
2022/03/29 10:06:03;;;;;;;;;;;19.10;53.90;;;;;;5039142;28;20217;-55
2022/03/29 10:11:15;;;;;;;;;;;19.10;53.80;;;;;;5040471;28;20000;-54
2022/03/29 10:13:40;;;;;;;;;;;19.10;53.80;;;;;;5038867;28;20400;-56
2022/03/29 10:16:08;;;;;;;;;;;19.10;53.70;;;;;;5038792;28;19940;-53
2022/03/29 10:18:34;;;;;;;;;;;19.10;53.70;;;;;;5020605;28;19971;-56
2022/03/29 10:21:00;;;;;;;;;;;19.10;53.70;;;;;;5038831;28;19921;-57
2022/03/29 10:23:28;;;;;;;;;;;19.10;53.70;;;;;;5021719;28;19917;-57
2022/03/29 10:25:53;;;;;;;;;;;19.10;53.70;;;;;;5039092;28;20000;-56
2022/03/29 10:28:21;;;;;;;;;;;19.10;53.80;;;;;;5038529;28;20348;-58
2022/03/29 10:30:46;;;;;;;;;;;19.10;53.70;;;;;;5036728;28;19912;-58
2022/03/29 10:33:16;;;;;;;;;;;19.20;53.80;;;;;;5028062;28;19921;-56
2022/03/29 10:36:00;;;;;;;;;;;19.20;53.70;;;;;;5010375;28;19912;-57
2022/03/29 10:38:47;;;;;;;;;;;19.10;53.70;;;;;;5024537;28;19921;-55
2022/03/29 10:41:28;;;;;;;;;;;19.10;53.70;;;;;;5019701;28;20385;-55
2022/03/29 10:44:06;;;;;;;;;;;19.20;53.70;;;;;;5025382;28;20581;-56
2022/03/29 10:49:16;;;;;;;;;;;19.10;53.60;;;;;;5015477;28;19933;-58
2022/03/29 10:51:41;;;;;;;;;;;19.20;53.60;;;;;;5019134;28;20289;-58
2022/03/29 10:54:25;;;;;;;;;;;19.20;53.60;;;;;;5018832;28;19913;-59
2022/03/29 10:56:58;;;;;;;;;;;19.20;53.60;;;;;;4998539;28;19925;-59
2022/03/29 10:59:24;;;;;;;;;;;19.20;53.60;;;;;;4998124;28;20065;-58
2022/03/29 11:02:08;;;;;;;;;;;19.20;53.60;;;;;;4998774;28;19918;-58
2022/03/29 11:04:33;;;;;;;;;;;19.20;53.50;;;;;;4997333;28;20008;-59
2022/03/29 11:07:05;;;;;;;;;;;19.20;53.40;;;;;;5016484;28;19927;-58
2022/03/29 11:09:30;;;;;;;;;;;19.20;53.50;;;;;;5009917;28;19925;-58
2022/03/29 11:11:55;;;;;;;;;;;19.30;54.10;;;;;;5003061;28;19914;-57
2022/03/29 11:14:27;;;;;;;;;;;19.30;53.40;;;;;;5003030;28;19968;-60
2022/03/29 11:16:53;;;;;;;;;;;19.30;53.40;;;;;;5002640;28;19985;-59
2022/03/29 11:19:37;;;;;;;;;;;19.30;53.40;;;;;;5002582;28;19945;-60
2022/03/29 11:22:21;;;;;;;;;;;19.30;53.50;;;;;;5002315;28;20484;-58
2022/03/29 11:24:48;;;;;;;;;;;19.30;53.40;;;;;;5002628;28;19913;-60
2022/03/29 11:27:13;;;;;;;;;;;19.30;53.30;;;;;;5003263;28;19918;-60
2022/03/29 11:29:38;;;;;;;;;;;19.30;53.30;;;;;;5001340;28;20397;-61
2022/03/29 11:32:04;;;;;;;;;;;19.30;53.30;;;;;;5001178;28;19922;-60
2022/03/29 11:34:35;;;;;;;;;;;19.30;53.30;;;;;;5001687;28;20082;-59
2022/03/29 11:37:01;;;;;;;;;;;19.30;53.30;;;;;;5017514;28;20551;-59
2022/03/29 11:39:26;;;;;;;;;;;19.30;53.30;;;;;;5001995;28;19964;-60
2022/03/29 11:41:52;;;;;;;;;;;19.30;53.30;;;;;;5002494;28;20278;-60
2022/03/29 11:44:18;;;;;;;;;;;19.40;53.30;;;;;;5002441;28;19917;-59
2022/03/29 11:46:45;;;;;;;;;;;19.30;53.20;;;;;;5017213;28;19921;-59
2022/03/29 11:49:10;;;;;;;;;;;19.30;53.20;;;;;;5001578;28;19923;-58
2022/03/29 11:51:35;;;;;;;;;;;19.30;53.20;;;;;;5002541;28;19922;-57
2022/03/29 11:54:01;;;;;;;;;;;19.30;53.20;;;;;;5002443;28;19914;-59
2022/03/29 11:56:26;;;;;;;;;;;19.30;53.10;;;;;;5002662;28;20286;-58
2022/03/29 11:58:53;;;;;;;;;;;19.40;53.30;;;;;;5001419;28;19914;-59
2022/03/29 12:01:20;;;;;;;;;;;19.30;53.20;;;;;;5001383;28;20008;-59
2022/03/29 12:03:46;;;;;;;;;;;19.30;53.20;;;;;;5002398;28;20813;-60
2022/03/29 12:06:12;;;;;;;;;;;19.40;53.20;;;;;;5001837;28;19921;-59
2022/03/29 12:08:53;;;;;;;;;;;19.40;53.20;;;;;;5001426;28;19986;-57
2022/03/29 12:11:19;;;;;;;;;;;19.40;53.20;;;;;;5001834;28;20279;-60
2022/03/29 12:13:45;;;;;;;;;;;19.40;53.20;;;;;;5001987;28;19922;-59
2022/03/29 12:16:29;;;;;;;;;;;19.40;53.20;;;;;;5001214;28;20506;-60
2022/03/29 12:18:55;;;;;;;;;;;19.40;53.20;;;;;;5000539;28;20612;-57
2022/03/29 12:21:21;;;;;;;;;;;19.40;53.20;;;;;;5000635;28;19984;-60
2022/03/29 12:23:47;;;;;;;;;;;19.40;53.20;;;;;;5001236;28;19921;-59
2022/03/29 12:26:13;;;;;;;;;;;19.40;53.30;;;;;;5002366;28;19918;-60
2022/03/29 12:28:39;;;;;;;;;;;19.40;53.20;;;;;;5001108;28;20021;-58
2022/03/29 12:31:09;;;;;;;;;;;19.40;53.10;;;;;;5001693;28;19953;-59
2022/03/29 12:33:34;;;;;;;;;;;19.40;53.10;;;;;;5000136;28;19921;-59
2022/03/29 12:36:03;;;;;;;;;;;19.40;53.10;;;;;;5000112;28;19960;-59
2022/03/29 12:38:37;;;;;;;;;;;19.40;53.10;;;;;;5001432;28;20461;-60
2022/03/29 12:41:03;;;;;;;;;;;19.40;53.00;;;;;;5000418;28;19917;-59
2022/03/29 12:43:33;;;;;;;;;;;19.40;53.00;;;;;;5001471;28;19973;-60
2022/03/29 12:45:58;;;;;;;;;;;19.50;53.00;;;;;;5001350;28;20059;-59
2022/03/29 12:48:25;;;;;;;;;;;19.50;53.00;;;;;;5000611;28;20489;-59
2022/03/29 12:50:51;;;;;;;;;;;19.50;53.00;;;;;;4999754;28;20652;-59
2022/03/29 12:53:16;;;;;;;;;;;19.50;53.00;;;;;;5016466;28;20333;-56
2022/03/29 12:55:55;;;;;;;;;;;19.50;53.00;;;;;;5001207;28;19918;-60
2022/03/29 12:58:30;;;;;;;;;;;19.50;53.00;;;;;;5001089;28;19913;-60
2022/03/29 13:00:56;;;;;;;;;;;19.50;52.90;;;;;;5000633;28;19923;-60
2022/03/29 13:03:21;;;;;;;;;;;19.50;52.90;;;;;;5001036;28;19914;-59
2022/03/29 13:05:48;;;;;;;;;;;19.50;52.90;;;;;;5001366;28;19920;-58
2022/03/29 13:08:18;;;;;;;;;;;19.50;52.90;;;;;;5001181;28;19913;-58
2022/03/29 13:10:44;;;;;;;;;;;19.50;52.90;;;;;;5000310;28;20352;-56
2022/03/29 13:13:12;;;;;;;;;;;19.50;52.90;;;;;;5000727;28;19924;-59
2022/03/29 13:15:38;;;;;;;;;;;19.50;52.90;;;;;;5000533;28;19987;-59
2022/03/29 13:18:04;;;;;;;;;;;19.50;52.90;;;;;;5000387;28;19913;-60
2022/03/29 13:20:34;;;;;;;;;;;19.50;52.90;;;;;;5000258;28;19924;-60
2022/03/29 13:22:59;;;;;;;;;;;19.50;52.90;;;;;;4999928;28;20013;-59
2022/03/29 13:25:34;;;;;;;;;;;19.50;52.90;;;;;;5000298;28;19917;-58
2022/03/29 13:27:59;;;;;;;;;;;19.50;52.90;;;;;;5000234;28;19995;-60
2022/03/29 13:30:25;;;;;;;;;;;19.50;52.90;;;;;;4999268;28;20465;-59
2022/03/29 13:32:52;;;;;;;;;;;19.50;52.90;;;;;;4999638;28;19921;-60
2022/03/29 13:35:18;;;;;;;;;;;19.50;52.90;;;;;;4999677;28;20047;-58
2022/03/29 13:37:43;;;;;;;;;;;19.50;53.00;;;;;;5000500;28;20004;-60
2022/03/29 13:40:10;;;;;;;;;;;19.50;53.00;;;;;;4999790;28;20459;-59
2022/03/29 13:42:36;;;;;;;;;;;19.50;53.00;;;;;;4999974;28;19953;-60
2022/03/29 13:45:02;;;;;;;;;;;19.50;52.90;;;;;;5014921;28;19948;-60
2022/03/29 13:47:27;;;;;;;;;;;19.50;52.90;;;;;;4999388;28;19921;-59
2022/03/29 13:49:52;;;;;;;;;;;19.50;52.90;;;;;;4998355;28;19967;-60
2022/03/29 13:52:18;;;;;;;;;;;19.50;52.90;;;;;;4998190;28;19953;-60
2022/03/29 13:54:43;;;;;;;;;;;19.50;52.90;;;;;;5000357;28;19913;-60
2022/03/29 13:57:09;;;;;;;;;;;19.50;52.90;;;;;;4999771;28;20329;-60
2022/03/29 13:59:34;;;;;;;;;;;19.50;52.90;;;;;;4998997;28;19917;-58
2022/03/29 14:02:00;;;;;;;;;;;19.50;52.90;;;;;;4999413;28;19964;-58
2022/03/29 14:04:25;;;;;;;;;;;19.50;52.90;;;;;;4999502;28;19914;-60
2022/03/29 14:06:51;;;;;;;;;;;19.50;52.90;;;;;;4999627;28;19926;-60
2022/03/29 14:09:16;;;;;;;;;;;19.50;53.00;;;;;;4999899;28;19914;-60
2022/03/29 14:11:42;;;;;;;;;;;19.40;52.90;;;;;;4999150;28;21516;-60
2022/03/29 14:14:07;;;;;;;;;;;19.40;52.90;;;;;;5000161;28;19914;-60
2022/03/29 14:16:33;;;;;;;;;;;19.50;53.00;;;;;;5000094;28;20382;-58
2022/03/29 14:18:58;;;;;;;;;;;19.50;52.90;;;;;;4999130;28;19914;-60
2022/03/29 14:21:24;;;;;;;;;;;19.40;52.90;;;;;;4999703;28;20377;-60
2022/03/29 14:23:49;;;;;;;;;;;19.50;52.90;;;;;;4999339;28;19924;-59
2022/03/29 14:26:15;;;;;;;;;;;19.40;52.90;;;;;;5000120;28;19914;-59